Time,TemperatureF,DewpointF,PressureIn,WindDirection,WindDirectionDegrees,WindSpeedMPH,WindSpeedGustMPH,Humidity,HourlyPrecipIn,Conditions,Clouds,dailyrainin,SoftwareType,DateUTC
2013-03-09 00:06:00,30.4,26.4,30.18,NNE,22,0.0,-999.0,85,-99.99,,,0.00,Acu-Link.com,2013-03-09 05:06:00,
2013-03-09 00:21:00,30.0,26.3,30.17,NNE,22,0.0,-999.0,86,-99.99,,,0.00,Acu-Link.com,2013-03-09 05:21:00,
2013-03-09 00:37:00,29.7,26.0,30.18,NE,45,0.0,-999.0,86,-99.99,,,0.00,Acu-Link.com,2013-03-09 05:37:00,
2013-03-09 00:52:00,29.3,25.9,30.18,East,90,0.0,-999.0,87,-99.99,,,0.00,Acu-Link.com,2013-03-09 05:52:00,
2013-03-09 01:07:00,28.9,25.5,30.19,NW,315,0.0,-999.0,87,-99.99,,,0.00,Acu-Link.com,2013-03-09 06:07:00,
2013-03-09 01:22:00,28.6,25.5,30.19,NNW,337,0.0,-999.0,88,-99.99,,,0.00,Acu-Link.com,2013-03-09 06:22:00,
2013-03-09 01:37:00,28.4,25.6,30.19,WNW,292,0.0,-999.0,89,-99.99,,,0.00,Acu-Link.com,2013-03-09 06:37:00,
2013-03-09 01:52:00,28.0,24.9,30.19,NE,45,0.0,-999.0,88,-99.99,,,0.00,Acu-Link.com,2013-03-09 06:52:00,
2013-03-09 02:07:00,27.7,24.6,30.20,SSE,157,0.0,-999.0,88,-99.99,,,0.00,Acu-Link.com,2013-03-09 07:07:00,
2013-03-09 02:22:00,27.5,24.7,30.20,North,0,0.0,-999.0,89,-99.99,,,0.00,Acu-Link.com,2013-03-09 07:22:00,
2013-03-09 02:37:00,27.1,24.6,30.19,WNW,292,0.0,-999.0,90,-99.99,,,0.00,Acu-Link.com,2013-03-09 07:37:00,
2013-03-09 02:53:00,27.1,25.1,30.19,WNW,292,0.0,-999.0,92,-99.99,,,0.00,Acu-Link.com,2013-03-09 07:53:00,
2013-03-09 03:08:00,27.1,25.1,30.18,NNE,22,0.0,-999.0,92,-99.99,,,0.00,Acu-Link.com,2013-03-09 08:08:00,
2013-03-09 03:23:00,27.1,25.1,30.17,NNE,22,0.0,-999.0,92,-99.99,,,0.00,Acu-Link.com,2013-03-09 08:23:00,
2013-03-09 03:38:00,26.8,24.5,30.17,NNE,22,0.0,-999.0,91,-99.99,,,0.00,Acu-Link.com,2013-03-09 08:38:00,
2013-03-09 03:53:00,26.4,24.1,30.17,NNE,22,0.0,-999.0,91,-99.99,,,0.00,Acu-Link.com,2013-03-09 08:53:00,
2013-03-09 04:08:00,26.2,23.9,30.17,NE,45,0.0,-999.0,91,-99.99,,,0.00,Acu-Link.com,2013-03-09 09:08:00,
2013-03-09 04:24:00,26.1,23.8,30.17,NNE,22,0.0,-999.0,91,-99.99,,,0.00,Acu-Link.com,2013-03-09 09:24:00,
2013-03-09 04:39:00,25.9,23.9,30.17,SE,135,0.0,-999.0,92,-99.99,,,0.00,Acu-Link.com,2013-03-09 09:39:00,
2013-03-09 04:54:00,25.9,23.9,30.17,North,0,0.0,-999.0,92,-99.99,,,0.00,Acu-Link.com,2013-03-09 09:54:00,
2013-03-09 05:09:00,25.7,23.7,30.17,WNW,292,0.0,-999.0,92,-99.99,,,0.00,Acu-Link.com,2013-03-09 10:09:00,
2013-03-09 05:24:00,25.5,23.5,30.18,ESE,112,0.0,-999.0,92,-99.99,,,0.00,Acu-Link.com,2013-03-09 10:24:00,
2013-03-09 05:39:00,25.3,23.3,30.18,ESE,112,0.0,-999.0,92,-99.99,,,0.00,Acu-Link.com,2013-03-09 10:39:00,
2013-03-09 05:54:00,25.2,23.2,30.19,WNW,292,0.0,-999.0,92,-99.99,,,0.00,Acu-Link.com,2013-03-09 10:54:00,
2013-03-09 06:09:00,25.0,23.0,30.19,WNW,292,0.0,-999.0,92,-99.99,,,0.00,Acu-Link.com,2013-03-09 11:09:00,
2013-03-09 06:24:00,25.0,23.0,30.20,North,0,0.0,-999.0,92,-99.99,,,0.00,Acu-Link.com,2013-03-09 11:24:00,
2013-03-09 06:39:00,24.8,22.8,30.21,WSW,247,0.0,-999.0,92,-99.99,,,0.00,Acu-Link.com,2013-03-09 11:39:00,
2013-03-09 06:55:00,24.6,22.6,30.21,WSW,247,0.0,-999.0,92,-99.99,,,0.00,Acu-Link.com,2013-03-09 11:55:00,
2013-03-09 07:10:00,25.2,23.2,30.22,South,180,0.0,-999.0,92,-99.99,,,0.00,Acu-Link.com,2013-03-09 12:10:00,
2013-03-09 07:25:00,26.4,24.7,30.22,ESE,112,0.0,-999.0,93,-99.99,,,0.00,Acu-Link.com,2013-03-09 12:25:00,
2013-03-09 07:40:00,30.4,29.1,30.22,ESE,112,0.0,-999.0,95,-99.99,,,0.00,Acu-Link.com,2013-03-09 12:40:00,
2013-03-09 07:55:00,34.9,33.6,30.23,East,90,0.0,-999.0,95,-99.99,,,0.00,Acu-Link.com,2013-03-09 12:55:00,
2013-03-09 08:10:00,39.6,35.8,30.24,East,90,0.0,-999.0,86,-99.99,,,0.00,Acu-Link.com,2013-03-09 13:10:00,
2013-03-09 08:26:00,43.9,37.5,30.24,ESE,112,0.0,-999.0,78,-99.99,,,0.00,Acu-Link.com,2013-03-09 13:26:00,
2013-03-09 08:41:00,48.4,40.5,30.25,SSE,157,1.1,-999.0,74,-99.99,,,0.00,Acu-Link.com,2013-03-09 13:41:00,
2013-03-09 08:56:00,51.6,36.4,30.26,ESE,112,3.2,-999.0,56,-99.99,,,0.00,Acu-Link.com,2013-03-09 13:56:00,
2013-03-09 09:11:00,48.9,32.5,30.25,NE,45,4.7,-999.0,53,-99.99,,,0.00,Acu-Link.com,2013-03-09 14:11:00,
2013-03-09 09:26:00,50.0,32.6,30.25,SW,225,4.7,-999.0,51,-99.99,,,0.00,Acu-Link.com,2013-03-09 14:26:00,
2013-03-09 09:41:00,50.5,32.6,30.26,SE,135,4.2,-999.0,50,-99.99,,,0.00,Acu-Link.com,2013-03-09 14:41:00,
2013-03-09 09:57:00,51.3,32.3,30.26,NE,45,3.2,-999.0,48,-99.99,,,0.00,Acu-Link.com,2013-03-09 14:57:00,
2013-03-09 10:12:00,52.7,32.5,30.26,WNW,292,1.7,-999.0,46,-99.99,,,0.00,Acu-Link.com,2013-03-09 15:12:00,
2013-03-09 10:27:00,52.9,33.2,30.26,East,90,4.2,-999.0,47,-99.99,,,0.00,Acu-Link.com,2013-03-09 15:27:00,
2013-03-09 10:42:00,53.4,32.0,30.25,SE,135,5.3,-999.0,44,-99.99,,,0.00,Acu-Link.com,2013-03-09 15:42:00,
2013-03-09 10:58:00,54.5,33.0,30.25,East,90,4.2,-999.0,44,-99.99,,,0.00,Acu-Link.com,2013-03-09 15:58:00,
2013-03-09 11:13:00,54.7,32.6,30.25,SW,225,2.7,-999.0,43,-99.99,,,0.00,Acu-Link.com,2013-03-09 16:13:00,
2013-03-09 11:28:00,55.9,32.5,30.24,SE,135,3.7,-999.0,41,-99.99,,,0.00,Acu-Link.com,2013-03-09 16:28:00,
2013-03-09 11:43:00,57.6,33.5,30.23,NE,45,4.7,-999.0,40,-99.99,,,0.00,Acu-Link.com,2013-03-09 16:43:00,
2013-03-09 11:59:00,58.3,32.8,30.23,ENE,67,2.2,-999.0,38,-99.99,,,0.00,Acu-Link.com,2013-03-09 16:59:00,
2013-03-09 12:14:00,58.6,33.7,30.22,ESE,112,2.7,-999.0,39,-99.99,,,0.00,Acu-Link.com,2013-03-09 17:14:00,
2013-03-09 12:30:00,57.0,31.6,30.22,South,180,2.2,-999.0,38,-99.99,,,0.00,Acu-Link.com,2013-03-09 17:30:00,
2013-03-09 12:46:00,57.9,33.1,30.22,ENE,67,4.7,-999.0,39,-99.99,,,0.00,Acu-Link.com,2013-03-09 17:46:00,
2013-03-09 13:02:00,59.0,34.7,30.21,ESE,112,4.2,-999.0,40,-99.99,,,0.00,Acu-Link.com,2013-03-09 18:02:00,
2013-03-09 13:18:00,60.3,33.9,30.21,NNW,337,3.2,-999.0,37,-99.99,,,0.00,Acu-Link.com,2013-03-09 18:18:00,
2013-03-09 13:33:00,61.2,34.7,30.19,ENE,67,5.3,-999.0,37,-99.99,,,0.00,Acu-Link.com,2013-03-09 18:33:00,
2013-03-09 13:49:00,62.8,34.7,30.18,SE,135,1.7,-999.0,35,-99.99,,,0.00,Acu-Link.com,2013-03-09 18:49:00,
2013-03-09 14:04:00,60.6,33.5,30.17,East,90,4.7,-999.0,36,-99.99,,,0.00,Acu-Link.com,2013-03-09 19:04:00,
2013-03-09 14:21:00,62.4,34.4,30.15,ENE,67,1.7,-999.0,35,-99.99,,,0.00,Acu-Link.com,2013-03-09 19:21:00,
2013-03-09 14:37:00,62.4,35.1,30.15,West,270,2.7,-999.0,36,-99.99,,,0.00,Acu-Link.com,2013-03-09 19:37:00,
2013-03-09 14:53:00,62.1,34.1,30.14,ESE,112,2.7,-999.0,35,-99.99,,,0.00,Acu-Link.com,2013-03-09 19:53:00,
2013-03-09 15:08:00,61.9,33.9,30.14,SSE,157,2.7,-999.0,35,-99.99,,,0.00,Acu-Link.com,2013-03-09 20:08:00,
2013-03-09 15:26:00,61.7,34.5,30.13,WSW,247,2.2,-999.0,36,-99.99,,,0.00,Acu-Link.com,2013-03-09 20:26:00,
2013-03-09 15:41:00,61.9,34.7,30.14,West,270,0.0,-999.0,36,-99.99,,,0.00,Acu-Link.com,2013-03-09 20:41:00,
2013-03-09 15:57:00,61.5,35.7,30.14,ESE,112,2.7,-999.0,38,-99.99,,,0.00,Acu-Link.com,2013-03-09 20:57:00,
2013-03-09 16:13:00,61.9,36.0,30.13,ESE,112,3.2,-999.0,38,-99.99,,,0.00,Acu-Link.com,2013-03-09 21:13:00,
2013-03-09 16:28:00,61.5,35.0,30.13,WNW,292,0.0,-999.0,37,-99.99,,,0.00,Acu-Link.com,2013-03-09 21:28:00,
2013-03-09 16:43:00,60.6,36.1,30.13,NNW,337,0.0,-999.0,40,-99.99,,,0.00,Acu-Link.com,2013-03-09 21:43:00,
2013-03-09 17:00:00,60.1,36.3,30.12,WNW,292,0.0,-999.0,41,-99.99,,,0.00,Acu-Link.com,2013-03-09 22:00:00,
2013-03-09 17:15:00,59.9,35.5,30.12,East,90,1.7,-999.0,40,-99.99,,,0.00,Acu-Link.com,2013-03-09 22:15:00,
2013-03-09 17:30:00,58.8,36.4,30.13,ESE,112,1.7,-999.0,43,-99.99,,,0.00,Acu-Link.com,2013-03-09 22:30:00,
2013-03-09 17:45:00,58.3,35.9,30.13,North,0,0.0,-999.0,43,-99.99,,,0.00,Acu-Link.com,2013-03-09 22:45:00,
2013-03-09 18:00:00,57.6,37.0,30.13,North,0,0.0,-999.0,46,-99.99,,,0.00,Acu-Link.com,2013-03-09 23:00:00,
2013-03-09 18:16:00,56.5,37.0,30.13,NNE,22,0.0,-999.0,48,-99.99,,,0.00,Acu-Link.com,2013-03-09 23:16:00,
2013-03-09 18:32:00,54.1,37.4,30.13,NNE,22,0.0,-999.0,53,-99.99,,,0.00,Acu-Link.com,2013-03-09 23:32:00,
2013-03-09 18:47:00,52.7,37.9,30.14,NNE,22,0.0,-999.0,57,-99.99,,,0.00,Acu-Link.com,2013-03-09 23:47:00,
2013-03-09 19:02:00,51.1,37.3,30.14,NNE,22,0.0,-999.0,59,-99.99,,,0.00,Acu-Link.com,2013-03-10 00:02:00,
2013-03-09 19:17:00,49.5,37.4,30.14,NNE,22,0.0,-999.0,63,-99.99,,,0.00,Acu-Link.com,2013-03-10 00:17:00,
2013-03-09 19:32:00,47.8,37.4,30.14,NNE,22,0.0,-999.0,67,-99.99,,,0.00,Acu-Link.com,2013-03-10 00:32:00,
2013-03-09 19:47:00,46.8,36.8,30.15,NNE,22,0.0,-999.0,68,-99.99,,,0.00,Acu-Link.com,2013-03-10 00:47:00,
2013-03-09 20:02:00,46.2,37.3,30.15,NE,45,0.0,-999.0,71,-99.99,,,0.00,Acu-Link.com,2013-03-10 01:02:00,
2013-03-09 20:18:00,45.9,37.7,30.15,NNE,22,0.0,-999.0,73,-99.99,,,0.00,Acu-Link.com,2013-03-10 01:18:00,
2013-03-09 20:33:00,45.3,38.2,30.15,NNE,22,0.0,-999.0,76,-99.99,,,0.00,Acu-Link.com,2013-03-10 01:33:00,
2013-03-09 20:48:00,45.0,37.9,30.15,NNE,22,0.0,-999.0,76,-99.99,,,0.00,Acu-Link.com,2013-03-10 01:48:00,
2013-03-09 21:03:00,44.8,38.0,30.15,NNE,22,0.0,-999.0,77,-99.99,,,0.00,Acu-Link.com,2013-03-10 02:03:00,
2013-03-09 21:18:00,44.6,37.8,30.16,NNE,22,0.0,-999.0,77,-99.99,,,0.00,Acu-Link.com,2013-03-10 02:18:00,
2013-03-09 21:33:00,44.4,38.3,30.16,NE,45,0.0,-999.0,79,-99.99,,,0.00,Acu-Link.com,2013-03-10 02:33:00,
2013-03-09 21:49:00,43.9,38.1,30.16,NE,45,0.0,-999.0,80,-99.99,,,0.00,Acu-Link.com,2013-03-10 02:49:00,
2013-03-09 22:04:00,43.3,37.6,30.16,NNE,22,0.0,-999.0,80,-99.99,,,0.00,Acu-Link.com,2013-03-10 03:04:00,
2013-03-09 22:19:00,42.8,37.4,30.16,NE,45,0.0,-999.0,81,-99.99,,,0.00,Acu-Link.com,2013-03-10 03:19:00,
2013-03-09 22:34:00,42.1,37.0,30.16,NNE,22,0.0,-999.0,82,-99.99,,,0.00,Acu-Link.com,2013-03-10 03:34:00,
2013-03-09 22:49:00,41.2,36.4,30.16,NE,45,0.0,-999.0,83,-99.99,,,0.00,Acu-Link.com,2013-03-10 03:49:00,
2013-03-09 23:04:00,40.5,36.1,30.16,NNE,22,0.0,-999.0,84,-99.99,,,0.00,Acu-Link.com,2013-03-10 04:04:00,
2013-03-09 23:19:00,39.6,35.5,30.16,NNE,22,0.0,-999.0,85,-99.99,,,0.00,Acu-Link.com,2013-03-10 04:19:00,
2013-03-09 23:35:00,38.8,35.0,30.15,NNE,22,0.0,-999.0,86,-99.99,,,0.00,Acu-Link.com,2013-03-10 04:35:00,
2013-03-09 23:50:00,37.9,34.4,30.15,NNE,22,0.0,-999.0,87,-99.99,,,0.00,Acu-Link.com,2013-03-10 04:50:00,